Time;durP1;ratioP1;P1;durP2;ratioP2;P2;SDS_P1;SDS_P2;PMS_P1;PMS_P2;Temp;Humidity;BMP_temperature;BMP_pressure;BME280_temperature;BME280_humidity;BME280_pressure;Samples;Min_cycle;Max_cycle;Signal;HPM_P1;HPM_P2
2021/04/28 00:00:13;;;;;;;0.10;0.10;;;;;;;;;;5135802;27;20206;-68
2021/04/28 00:02:39;;;;;;;3.67;3.47;;;;;;;;;;5134873;27;20197;-69
2021/04/28 00:05:07;;;;;;;0.20;0.20;;;;;;;;;;5124875;28;20216;-69
2021/04/28 00:07:33;;;;;;;0.20;0.20;;;;;;;;;;5132252;27;20204;-68
2021/04/28 00:09:59;;;;;;;0.20;0.20;;;;;;;;;;5145593;27;20205;-70
2021/04/28 00:12:25;;;;;;;0.20;0.20;;;;;;;;;;5129041;27;20211;-67
2021/04/28 00:14:51;;;;;;;0.20;0.20;;;;;;;;;;5139905;27;20519;-70
2021/04/28 00:17:17;;;;;;;0.20;0.20;;;;;;;;;;5140064;27;20283;-67
2021/04/28 00:19:43;;;;;;;0.20;0.20;;;;;;;;;;5135324;27;20245;-68
2021/04/28 00:22:09;;;;;;;0.20;0.20;;;;;;;;;;5139425;27;20331;-68
2021/04/28 00:24:36;;;;;;;0.10;0.10;;;;;;;;;;5145350;27;20223;-68
2021/04/28 00:27:02;;;;;;;0.30;0.30;;;;;;;;;;5145459;27;20220;-70
2021/04/28 00:29:28;;;;;;;0.10;0.10;;;;;;;;;;5124460;28;20266;-69
2021/04/28 00:31:53;;;;;;;1.23;1.23;;;;;;;;;;5123391;28;20205;-69
2021/04/28 00:34:19;;;;;;;0.20;0.20;;;;;;;;;;5131681;27;20201;-69
2021/04/28 00:36:45;;;;;;;0.20;0.20;;;;;;;;;;5145300;27;20261;-68
2021/04/28 00:39:11;;;;;;;0.20;0.20;;;;;;;;;;5145165;27;20238;-69
2021/04/28 00:41:37;;;;;;;0.20;0.20;;;;;;;;;;5144747;27;20360;-69
2021/04/28 00:44:04;;;;;;;0.20;0.20;;;;;;;;;;5142648;27;20224;-69
2021/04/28 00:46:29;;;;;;;0.20;0.20;;;;;;;;;;5144852;27;20204;-68
2021/04/28 00:48:55;;;;;;;0.50;0.50;;;;;;;;;;5144802;27;20200;-68
2021/04/28 00:51:21;;;;;;;0.10;0.10;;;;;;;;;;5143965;27;20265;-68
2021/04/28 00:53:47;;;;;;;0.20;0.20;;;;;;;;;;5139775;27;20233;-69
2021/04/28 00:56:14;;;;;;;0.40;0.40;;;;;;;;;;5144589;27;20204;-68
2021/04/28 00:58:40;;;;;;;0.20;0.20;;;;;;;;;;5144523;27;20229;-69
2021/04/28 01:01:05;;;;;;;0.10;0.10;;;;;;;;;;5142981;27;20201;-69
2021/04/28 01:03:31;;;;;;;0.20;0.20;;;;;;;;;;5135681;27;20409;-68
2021/04/28 01:05:58;;;;;;;0.20;0.20;;;;;;;;;;5141405;28;20205;-69
2021/04/28 01:08:24;;;;;;;0.20;0.20;;;;;;;;;;5133512;28;20509;-68
2021/04/28 01:10:51;;;;;;;0.20;0.20;;;;;;;;;;5130299;28;20213;-68
2021/04/28 01:13:18;;;;;;;0.10;0.10;;;;;;;;;;5143562;28;20205;-68
2021/04/28 01:15:44;;;;;;;0.20;0.20;;;;;;;;;;5144408;28;20253;-68
2021/04/28 01:18:10;;;;;;;0.20;0.20;;;;;;;;;;5139074;28;20221;-68
2021/04/28 01:20:38;;;;;;;0.20;0.20;;;;;;;;;;5135199;28;20249;-69
2021/04/28 01:23:05;;;;;;;0.20;0.20;;;;;;;;;;5140982;28;20398;-69
2021/04/28 01:25:31;;;;;;;0.20;0.20;;;;;;;;;;5131384;28;20208;-68
2021/04/28 01:27:59;;;;;;;0.20;0.20;;;;;;;;;;5130715;28;20205;-68
2021/04/28 01:30:27;;;;;;;0.20;0.20;;;;;;;;;;5144038;28;20226;-68
2021/04/28 01:32:54;;;;;;;2.43;2.20;;;;;;;;;;5144792;28;20276;-69
2021/04/28 01:35:20;;;;;;;0.20;0.20;;;;;;;;;;5144151;28;20231;-68
2021/04/28 01:37:46;;;;;;;0.10;0.10;;;;;;;;;;5144435;28;20212;-68
2021/04/28 01:40:14;;;;;;;0.20;0.20;;;;;;;;;;5140139;28;20200;-67
2021/04/28 01:42:40;;;;;;;0.20;0.20;;;;;;;;;;5137015;27;20207;-68
2021/04/28 01:45:06;;;;;;;0.20;0.20;;;;;;;;;;5147062;27;20235;-69
2021/04/28 01:47:33;;;;;;;0.20;0.20;;;;;;;;;;5146707;27;20199;-69
2021/04/28 01:49:58;;;;;;;7.10;6.80;;;;;;;;;;5145751;27;21022;-70
2021/04/28 01:52:24;;;;;;;0.20;0.20;;;;;;;;;;5147633;27;20204;-70
2021/04/28 01:54:50;;;;;;;0.30;0.30;;;;;;;;;;5148309;27;20272;-69
2021/04/28 01:57:17;;;;;;;7.50;7.00;;;;;;;;;;5147504;27;20227;-69
2021/04/28 01:59:43;;;;;;;0.20;0.20;;;;;;;;;;5142296;27;20239;-69
2021/04/28 02:02:10;;;;;;;0.10;0.10;;;;;;;;;;5147914;27;20208;-69
2021/04/28 02:04:36;;;;;;;0.20;0.20;;;;;;;;;;5140207;27;20200;-69
2021/04/28 02:07:01;;;;;;;0.20;0.20;;;;;;;;;;5147573;27;20249;-69
2021/04/28 02:09:27;;;;;;;0.17;0.17;;;;;;;;;;5135763;27;20267;-69
2021/04/28 02:11:53;;;;;;;0.20;0.20;;;;;;;;;;5130874;27;20203;-69
2021/04/28 02:14:21;;;;;;;0.27;0.27;;;;;;;;;;5143496;27;20206;-69
2021/04/28 02:16:47;;;;;;;0.20;0.20;;;;;;;;;;5137833;27;20306;-69
2021/04/28 02:19:13;;;;;;;0.20;0.20;;;;;;;;;;5144084;27;20496;-69
2021/04/28 02:21:40;;;;;;;0.20;0.20;;;;;;;;;;5137151;27;20211;-69
2021/04/28 02:24:06;;;;;;;0.20;0.20;;;;;;;;;;5145037;27;20232;-69
2021/04/28 02:26:32;;;;;;;0.20;0.20;;;;;;;;;;5139943;27;20237;-69
2021/04/28 02:28:58;;;;;;;0.20;0.20;;;;;;;;;;5140369;27;20203;-68
2021/04/28 02:31:24;;;;;;;0.20;0.20;;;;;;;;;;5142140;27;20406;-69
2021/04/28 02:33:50;;;;;;;0.10;0.10;;;;;;;;;;5146848;27;20206;-69
2021/04/28 02:36:16;;;;;;;0.20;0.20;;;;;;;;;;5147077;27;20211;-69
2021/04/28 02:38:44;;;;;;;0.20;0.20;;;;;;;;;;5136786;27;20253;-69
2021/04/28 02:41:10;;;;;;;0.20;0.20;;;;;;;;;;5136523;27;20484;-67
2021/04/28 02:43:37;;;;;;;0.20;0.20;;;;;;;;;;5130562;27;20245;-68
2021/04/28 02:46:04;;;;;;;0.10;0.10;;;;;;;;;;5136293;27;20197;-68
2021/04/28 02:48:31;;;;;;;0.20;0.20;;;;;;;;;;5143552;27;20246;-69
2021/04/28 02:50:57;;;;;;;0.20;0.20;;;;;;;;;;5136715;27;20279;-69
2021/04/28 02:53:24;;;;;;;0.20;0.20;;;;;;;;;;5142717;27;20227;-68
2021/04/28 02:55:52;;;;;;;2.20;2.10;;;;;;;;;;5146979;27;20207;-68
2021/04/28 02:58:18;;;;;;;0.20;0.20;;;;;;;;;;5141909;27;20223;-68
2021/04/28 03:00:44;;;;;;;0.20;0.20;;;;;;;;;;5140737;27;20279;-69
2021/04/28 03:03:13;;;;;;;0.20;0.20;;;;;;;;;;5146728;27;20210;-68
2021/04/28 03:05:40;;;;;;;0.20;0.20;;;;;;;;;;5146448;27;20377;-69
2021/04/28 03:08:05;;;;;;;0.20;0.20;;;;;;;;;;5133654;27;20205;-69
2021/04/28 03:10:31;;;;;;;0.20;0.20;;;;;;;;;;5141674;27;20209;-68
2021/04/28 03:12:59;;;;;;;0.20;0.20;;;;;;;;;;5135452;27;20279;-68
2021/04/28 03:15:25;;;;;;;0.20;0.20;;;;;;;;;;5146555;27;20203;-69
2021/04/28 03:17:51;;;;;;;0.20;0.20;;;;;;;;;;5146274;27;20239;-68
2021/04/28 03:20:19;;;;;;;0.10;0.10;;;;;;;;;;5134524;27;20278;-69
2021/04/28 03:22:46;;;;;;;0.20;0.20;;;;;;;;;;5144017;27;20280;-68
2021/04/28 03:25:13;;;;;;;0.20;0.20;;;;;;;;;;5146194;27;20551;-68
2021/04/28 03:27:39;;;;;;;0.20;0.20;;;;;;;;;;5140283;27;20227;-68
2021/04/28 03:30:05;;;;;;;0.20;0.20;;;;;;;;;;5142034;27;20227;-68
2021/04/28 03:32:31;;;;;;;0.20;0.20;;;;;;;;;;5135344;27;20208;-68
2021/04/28 03:34:57;;;;;;;0.20;0.20;;;;;;;;;;5139728;27;20490;-68
2021/04/28 03:37:23;;;;;;;0.20;0.20;;;;;;;;;;5145690;27;20541;-68
2021/04/28 03:39:50;;;;;;;0.20;0.20;;;;;;;;;;5137960;27;20200;-68
2021/04/28 03:42:16;;;;;;;7.03;6.57;;;;;;;;;;5145807;27;20241;-68
2021/04/28 03:44:42;;;;;;;0.20;0.20;;;;;;;;;;5131167;27;20273;-67
2021/04/28 03:47:07;;;;;;;0.20;0.20;;;;;;;;;;5125102;28;20308;-68
2021/04/28 03:49:33;;;;;;;0.20;0.20;;;;;;;;;;5125151;28;20268;-68
2021/04/28 03:51:59;;;;;;;0.20;0.20;;;;;;;;;;5139712;27;20247;-68
2021/04/28 03:54:25;;;;;;;0.20;0.20;;;;;;;;;;5124956;27;20253;-69
2021/04/28 03:56:51;;;;;;;0.20;0.20;;;;;;;;;;5153356;27;20233;-67
2021/04/28 03:59:18;;;;;;;0.10;0.10;;;;;;;;;;5129487;27;20461;-69
2021/04/28 04:01:43;;;;;;;0.20;0.20;;;;;;;;;;5135767;27;20203;-69
2021/04/28 04:04:09;;;;;;;0.20;0.20;;;;;;;;;;5136535;27;20204;-69
2021/04/28 04:06:35;;;;;;;0.20;0.20;;;;;;;;;;5135797;27;20269;-68
2021/04/28 04:09:01;;;;;;;0.20;0.20;;;;;;;;;;5137169;27;20203;-68
2021/04/28 04:11:27;;;;;;;0.20;0.20;;;;;;;;;;5140841;27;20377;-68
2021/04/28 04:13:53;;;;;;;0.20;0.20;;;;;;;;;;5140086;27;20227;-68
2021/04/28 04:16:19;;;;;;;0.30;0.30;;;;;;;;;;5138827;27;20217;-68
2021/04/28 04:18:45;;;;;;;0.50;0.50;;;;;;;;;;5129075;27;20360;-68
2021/04/28 04:21:11;;;;;;;0.20;0.20;;;;;;;;;;5144210;27;20275;-68
2021/04/28 04:23:36;;;;;;;0.20;0.20;;;;;;;;;;5139811;27;20230;-70
2021/04/28 04:26:03;;;;;;;0.20;0.20;;;;;;;;;;5145047;27;20239;-69
2021/04/28 04:28:28;;;;;;;0.83;0.83;;;;;;;;;;5153862;27;20199;-69
2021/04/28 04:30:55;;;;;;;0.20;0.20;;;;;;;;;;5145189;27;20489;-68
2021/04/28 04:33:21;;;;;;;0.20;0.20;;;;;;;;;;5131969;27;20210;-68
2021/04/28 04:35:46;;;;;;;0.20;0.20;;;;;;;;;;5144661;27;20393;-69
2021/04/28 04:38:12;;;;;;;0.20;0.20;;;;;;;;;;5137863;27;20221;-69
2021/04/28 04:40:38;;;;;;;0.20;0.20;;;;;;;;;;5139018;27;20206;-69
2021/04/28 04:43:04;;;;;;;0.20;0.20;;;;;;;;;;5134914;27;20217;-68
2021/04/28 04:45:33;;;;;;;0.20;0.20;;;;;;;;;;5141248;27;20419;-68
2021/04/28 04:48:00;;;;;;;0.20;0.20;;;;;;;;;;5130322;27;20205;-70
2021/04/28 04:50:26;;;;;;;0.20;0.20;;;;;;;;;;5142172;27;20229;-68
2021/04/28 04:52:51;;;;;;;3.80;3.70;;;;;;;;;;5136903;27;20235;-69
2021/04/28 04:55:17;;;;;;;0.23;0.23;;;;;;;;;;5133891;27;20200;-69
2021/04/28 04:57:43;;;;;;;0.17;0.17;;;;;;;;;;5127649;27;20412;-68
2021/04/28 05:00:09;;;;;;;0.20;0.20;;;;;;;;;;5134656;27;20241;-68
2021/04/28 05:02:35;;;;;;;0.20;0.20;;;;;;;;;;5131558;27;20507;-68
2021/04/28 05:05:02;;;;;;;0.20;0.20;;;;;;;;;;5136000;28;20209;-68
2021/04/28 05:07:28;;;;;;;0.30;0.30;;;;;;;;;;5138008;28;20307;-69
2021/04/28 05:09:54;;;;;;;0.20;0.20;;;;;;;;;;5136249;28;20206;-69
2021/04/28 05:12:19;;;;;;;0.37;0.37;;;;;;;;;;5129438;28;20200;-69
2021/04/28 05:14:45;;;;;;;0.20;0.20;;;;;;;;;;5131795;27;20411;-69
2021/04/28 05:17:11;;;;;;;0.50;0.50;;;;;;;;;;5144261;27;20226;-70
2021/04/28 05:19:37;;;;;;;0.20;0.20;;;;;;;;;;5140464;27;20211;-69
2021/04/28 05:22:03;;;;;;;0.20;0.20;;;;;;;;;;5137767;27;20259;-69
2021/04/28 05:24:29;;;;;;;0.60;0.60;;;;;;;;;;5138472;27;20203;-69
2021/04/28 05:26:55;;;;;;;0.20;0.20;;;;;;;;;;5141190;27;20394;-68
2021/04/28 05:29:20;;;;;;;0.20;0.20;;;;;;;;;;5138110;27;20194;-70
2021/04/28 05:31:46;;;;;;;0.20;0.20;;;;;;;;;;5134205;27;20270;-69
2021/04/28 05:34:12;;;;;;;0.20;0.20;;;;;;;;;;5140515;27;20203;-73
2021/04/28 05:36:38;;;;;;;3.00;2.03;;;;;;;;;;5140955;27;20240;-69
2021/04/28 05:39:05;;;;;;;0.20;0.20;;;;;;;;;;5139344;27;20614;-68
2021/04/28 05:41:30;;;;;;;0.20;0.20;;;;;;;;;;5144583;27;20318;-69
2021/04/28 05:43:56;;;;;;;0.10;0.10;;;;;;;;;;5151348;27;20250;-68
2021/04/28 05:46:22;;;;;;;0.20;0.20;;;;;;;;;;5152413;27;20203;-69
2021/04/28 05:48:48;;;;;;;5.00;3.07;;;;;;;;;;5148002;27;20219;-68
2021/04/28 05:51:14;;;;;;;0.20;0.20;;;;;;;;;;5142472;27;20532;-69
2021/04/28 05:53:40;;;;;;;0.20;0.20;;;;;;;;;;5131434;27;20216;-69
2021/04/28 05:56:07;;;;;;;0.30;0.30;;;;;;;;;;5143779;27;20241;-71
2021/04/28 05:58:33;;;;;;;0.10;0.10;;;;;;;;;;5138811;27;20545;-68
2021/04/28 06:01:00;;;;;;;6.60;5.97;;;;;;;;;;5144460;27;20214;-68
2021/04/28 06:03:26;;;;;;;0.30;0.30;;;;;;;;;;5144597;27;20284;-68
2021/04/28 06:05:51;;;;;;;0.20;0.20;;;;;;;;;;5131231;27;20214;-68
2021/04/28 06:08:18;;;;;;;0.20;0.20;;;;;;;;;;5136193;27;20204;-70
2021/04/28 06:10:44;;;;;;;0.20;0.20;;;;;;;;;;5137830;27;20229;-69
2021/04/28 06:13:10;;;;;;;0.20;0.20;;;;;;;;;;5138310;27;20205;-68
2021/04/28 06:15:36;;;;;;;0.23;0.23;;;;;;;;;;5142219;27;20248;-69
2021/04/28 06:18:05;;;;;;;0.20;0.20;;;;;;;;;;5136486;27;20299;-68
2021/04/28 06:20:31;;;;;;;0.30;0.30;;;;;;;;;;5146343;27;20195;-68
2021/04/28 06:22:56;;;;;;;0.20;0.20;;;;;;;;;;5139148;27;20228;-68
2021/04/28 06:25:22;;;;;;;0.20;0.20;;;;;;;;;;5133640;27;20211;-68
2021/04/28 06:27:48;;;;;;;0.10;0.10;;;;;;;;;;5140543;27;20199;-68
2021/04/28 06:30:15;;;;;;;0.33;0.33;;;;;;;;;;5137454;27;20206;-69
2021/04/28 06:32:41;;;;;;;0.20;0.20;;;;;;;;;;5137310;27;20203;-69
2021/04/28 06:35:07;;;;;;;0.33;0.33;;;;;;;;;;5141522;27;20207;-69
2021/04/28 06:37:33;;;;;;;0.20;0.20;;;;;;;;;;5144537;27;20310;-68
2021/04/28 06:39:59;;;;;;;0.20;0.20;;;;;;;;;;5139582;27;20296;-70
2021/04/28 06:42:25;;;;;;;0.20;0.20;;;;;;;;;;5136362;27;20450;-69
2021/04/28 06:44:50;;;;;;;0.20;0.20;;;;;;;;;;5137343;27;20400;-69
2021/04/28 06:47:17;;;;;;;7.53;7.13;;;;;;;;;;5145646;27;20196;-70
2021/04/28 06:49:43;;;;;;;0.20;0.20;;;;;;;;;;5135121;27;20251;-69
2021/04/28 06:52:09;;;;;;;0.20;0.20;;;;;;;;;;5144449;27;20199;-70
2021/04/28 06:54:34;;;;;;;0.20;0.20;;;;;;;;;;5146935;27;20200;-70
2021/04/28 06:57:00;;;;;;;0.10;0.10;;;;;;;;;;5146460;27;20238;-72
2021/04/28 06:59:26;;;;;;;0.20;0.20;;;;;;;;;;5141721;27;20221;-70
2021/04/28 07:01:52;;;;;;;0.20;0.20;;;;;;;;;;5136095;27;20400;-69
2021/04/28 07:04:19;;;;;;;0.10;0.10;;;;;;;;;;5136429;27;20222;-67
2021/04/28 07:06:45;;;;;;;0.20;0.20;;;;;;;;;;5135848;27;20221;-69
2021/04/28 07:09:11;;;;;;;0.10;0.10;;;;;;;;;;5133471;27;20200;-71
2021/04/28 07:11:36;;;;;;;0.20;0.20;;;;;;;;;;5132753;27;20208;-76
2021/04/28 07:14:02;;;;;;;0.20;0.20;;;;;;;;;;5144089;27;20296;-71
2021/04/28 07:16:28;;;;;;;0.60;0.60;;;;;;;;;;5132006;27;20206;-71
2021/04/28 07:18:54;;;;;;;0.10;0.10;;;;;;;;;;5140590;27;20253;-70
2021/04/28 07:21:21;;;;;;;0.20;0.20;;;;;;;;;;5146329;27;20258;-71
2021/04/28 07:23:47;;;;;;;0.20;0.20;;;;;;;;;;5143557;27;20221;-72
2021/04/28 07:26:13;;;;;;;0.10;0.10;;;;;;;;;;5150656;27;20205;-72
2021/04/28 07:28:40;;;;;;;0.10;0.10;;;;;;;;;;5136826;27;20251;-70
2021/04/28 07:31:06;;;;;;;0.10;0.10;;;;;;;;;;5132360;27;20594;-70
2021/04/28 07:33:32;;;;;;;0.20;0.20;;;;;;;;;;5148372;27;20534;-69
2021/04/28 07:35:57;;;;;;;0.10;0.10;;;;;;;;;;5139444;27;20205;-70
2021/04/28 07:38:24;;;;;;;0.10;0.10;;;;;;;;;;5138142;27;20520;-70
2021/04/28 07:40:50;;;;;;;0.30;0.30;;;;;;;;;;5133776;27;20202;-70
2021/04/28 07:43:16;;;;;;;0.10;0.10;;;;;;;;;;5142892;27;20230;-71
2021/04/28 07:45:42;;;;;;;0.17;0.17;;;;;;;;;;5145544;27;20224;-70
2021/04/28 07:48:09;;;;;;;0.10;0.10;;;;;;;;;;5145440;27;20260;-70
2021/04/28 07:50:35;;;;;;;0.10;0.10;;;;;;;;;;5136811;27;20268;-71
2021/04/28 07:53:01;;;;;;;0.10;0.10;;;;;;;;;;5135922;27;20210;-71
2021/04/28 07:55:29;;;;;;;0.10;0.10;;;;;;;;;;5134857;27;20202;-71
2021/04/28 07:57:55;;;;;;;0.20;0.20;;;;;;;;;;5143108;27;20235;-71
2021/04/28 08:00:21;;;;;;;0.10;0.10;;;;;;;;;;5140343;27;20203;-70
2021/04/28 08:02:48;;;;;;;0.50;0.50;;;;;;;;;;5145289;27;20199;-70
2021/04/28 08:05:14;;;;;;;0.10;0.10;;;;;;;;;;5145539;27;20203;-72
2021/04/28 08:07:40;;;;;;;0.10;0.10;;;;;;;;;;5141565;27;20197;-70
2021/04/28 08:10:06;;;;;;;0.10;0.10;;;;;;;;;;5141776;27;20209;-71
2021/04/28 08:12:33;;;;;;;0.20;0.20;;;;;;;;;;5141623;27;20226;-71
2021/04/28 08:15:00;;;;;;;0.13;0.13;;;;;;;;;;5131844;27;20204;-70
2021/04/28 08:17:26;;;;;;;0.10;0.10;;;;;;;;;;5144975;27;20222;-70
2021/04/28 08:19:51;;;;;;;0.33;0.33;;;;;;;;;;5139276;27;20203;-70
2021/04/28 08:22:17;;;;;;;0.53;0.53;;;;;;;;;;5142064;27;20264;-70
2021/04/28 08:24:43;;;;;;;0.10;0.10;;;;;;;;;;5141520;27;20195;-71
2021/04/28 08:27:09;;;;;;;0.13;0.13;;;;;;;;;;5151975;27;20220;-70
2021/04/28 08:29:36;;;;;;;0.30;0.30;;;;;;;;;;5136131;27;20203;-70
2021/04/28 08:32:02;;;;;;;0.10;0.10;;;;;;;;;;5145265;27;20206;-70
2021/04/28 08:34:28;;;;;;;0.10;0.10;;;;;;;;;;5144721;27;20205;-71
2021/04/28 08:36:53;;;;;;;0.10;0.10;;;;;;;;;;5141788;27;20202;-71
2021/04/28 08:39:19;;;;;;;0.10;0.10;;;;;;;;;;5127348;27;20210;-71
2021/04/28 08:41:46;;;;;;;0.10;0.10;;;;;;;;;;5141352;27;20212;-70
2021/04/28 08:44:13;;;;;;;0.10;0.10;;;;;;;;;;5145229;27;20210;-70
2021/04/28 08:46:39;;;;;;;0.10;0.10;;;;;;;;;;5134868;27;20208;-69
2021/04/28 08:49:05;;;;;;;0.10;0.10;;;;;;;;;;5141088;27;20216;-70
2021/04/28 08:51:31;;;;;;;0.10;0.10;;;;;;;;;;5150693;27;20262;-69
2021/04/28 08:53:57;;;;;;;0.10;0.10;;;;;;;;;;5140395;27;20236;-70
2021/04/28 08:56:23;;;;;;;0.10;0.10;;;;;;;;;;5153132;27;20220;-71
2021/04/28 08:58:50;;;;;;;0.10;0.10;;;;;;;;;;5143042;27;20292;-69
2021/04/28 09:01:26;;;;;;;0.10;0.10;;;;;;;;;;5142459;27;20259;-70
2021/04/28 09:03:54;;;;;;;0.10;0.10;;;;;;;;;;5127044;27;20588;-71
2021/04/28 09:06:31;;;;;;;0.77;0.77;;;;;;;;;;5137667;27;20207;-71
2021/04/28 09:08:57;;;;;;;0.10;0.10;;;;;;;;;;5129258;28;20263;-70
2021/04/28 09:11:37;;;;;;;0.20;0.20;;;;;;;;;;5134581;28;20261;-70
2021/04/28 09:14:06;;;;;;;0.10;0.10;;;;;;;;;;5132882;28;20201;-73
2021/04/28 09:16:33;;;;;;;0.10;0.10;;;;;;;;;;5138643;28;20232;-70
2021/04/28 09:19:00;;;;;;;0.10;0.10;;;;;;;;;;5136616;27;20229;-69
2021/04/28 09:21:44;;;;;;;0.10;0.10;;;;;;;;;;5144564;28;20487;-69
2021/04/28 09:24:17;;;;;;;0.10;0.10;;;;;;;;;;5136183;28;20208;-71
2021/04/28 09:26:43;;;;;;;0.10;0.10;;;;;;;;;;5139225;27;20207;-70
2021/04/28 09:29:09;;;;;;;0.10;0.10;;;;;;;;;;5131791;27;20276;-71
2021/04/28 09:31:35;;;;;;;0.10;0.10;;;;;;;;;;5129834;27;20210;-70
2021/04/28 09:34:02;;;;;;;0.40;0.40;;;;;;;;;;5128389;27;20233;-74
2021/04/28 09:36:32;;;;;;;0.10;0.10;;;;;;;;;;5142993;27;20214;-70
2021/04/28 09:39:01;;;;;;;0.10;0.10;;;;;;;;;;5139305;28;20208;-70
2021/04/28 09:41:32;;;;;;;0.10;0.10;;;;;;;;;;5143922;28;20224;-71
2021/04/28 09:43:58;;;;;;;0.10;0.10;;;;;;;;;;5144228;28;20230;-73
2021/04/28 09:46:24;;;;;;;0.10;0.10;;;;;;;;;;5142830;28;20232;-72
2021/04/28 09:49:00;;;;;;;0.10;0.10;;;;;;;;;;5143191;28;20196;-71
2021/04/28 09:51:34;;;;;;;0.10;0.10;;;;;;;;;;5144024;28;20379;-71
2021/04/28 09:54:10;;;;;;;0.10;0.10;;;;;;;;;;5144274;28;20207;-71
2021/04/28 09:56:37;;;;;;;0.10;0.10;;;;;;;;;;5143931;28;20213;-72
2021/04/28 09:59:03;;;;;;;0.10;0.10;;;;;;;;;;5152033;27;20229;-73
2021/04/28 10:01:30;;;;;;;0.07;0.07;;;;;;;;;;5145507;27;20432;-72
2021/04/28 10:03:56;;;;;;;0.10;0.10;;;;;;;;;;5140812;27;20268;-71
2021/04/28 10:06:36;;;;;;;0.10;0.10;;;;;;;;;;5150827;27;20203;-70
2021/04/28 10:09:06;;;;;;;0.10;0.10;;;;;;;;;;5126700;28;20450;-71
2021/04/28 10:11:32;;;;;;;0.10;0.10;;;;;;;;;;5141430;27;20426;-73
2021/04/28 10:13:58;;;;;;;0.03;0.03;;;;;;;;;;5135719;27;20202;-72
2021/04/28 10:16:24;;;;;;;0.10;0.10;;;;;;;;;;5140930;27;20205;-72
2021/04/28 10:18:50;;;;;;;0.10;0.10;;;;;;;;;;5149614;27;20403;-72
2021/04/28 10:21:17;;;;;;;0.10;0.10;;;;;;;;;;5158928;27;20213;-72
2021/04/28 10:23:43;;;;;;;0.10;0.10;;;;;;;;;;5152510;27;20424;-72
2021/04/28 10:26:11;;;;;;;0.10;0.10;;;;;;;;;;5145170;27;20204;-73
2021/04/28 10:28:38;;;;;;;0.10;0.10;;;;;;;;;;5138463;27;20204;-74
2021/04/28 10:31:04;;;;;;;0.10;0.10;;;;;;;;;;5128458;27;20309;-75
2021/04/28 10:33:33;;;;;;;0.00;0.00;;;;;;;;;;5141876;27;20487;-74
2021/04/28 10:35:59;;;;;;;0.10;0.10;;;;;;;;;;5139236;27;20209;-74
2021/04/28 10:38:26;;;;;;;0.00;0.00;;;;;;;;;;5140617;27;20227;-73
2021/04/28 10:40:52;;;;;;;0.00;0.00;;;;;;;;;;5147275;27;20261;-73
2021/04/28 10:43:20;;;;;;;0.10;0.10;;;;;;;;;;5142861;27;20389;-72
2021/04/28 10:45:47;;;;;;;0.30;0.30;;;;;;;;;;5135467;27;20217;-72
2021/04/28 10:48:15;;;;;;;0.00;0.00;;;;;;;;;;5147011;27;20197;-69
2021/04/28 10:50:43;;;;;;;0.10;0.10;;;;;;;;;;5143351;27;20273;-69
2021/04/28 10:53:17;;;;;;;0.10;0.10;;;;;;;;;;5147085;27;20447;-70
2021/04/28 10:55:56;;;;;;;0.10;0.10;;;;;;;;;;5148967;27;20412;-70
2021/04/28 10:58:42;;;;;;;0.10;0.10;;;;;;;;;;5147210;27;20241;-70
2021/04/28 11:01:16;;;;;;;0.00;0.00;;;;;;;;;;5140158;27;20201;-70
2021/04/28 11:03:44;;;;;;;0.00;0.00;;;;;;;;;;5144541;27;20403;-67
2021/04/28 11:06:25;;;;;;;0.10;0.10;;;;;;;;;;5143642;27;20221;-68
2021/04/28 11:09:07;;;;;;;0.35;0.35;;;;;;;;;;5147898;27;20507;-70
2021/04/28 11:11:44;;;;;;;0.00;0.00;;;;;;;;;;5143912;27;20216;-71
2021/04/28 11:14:29;;;;;;;0.00;0.00;;;;;;;;;;5144122;27;20192;-71
2021/04/28 11:16:56;;;;;;;0.32;0.32;;;;;;;;;;5138975;27;20201;-71
2021/04/28 11:19:23;;;;;;;0.00;0.00;;;;;;;;;;5139046;27;20318;-72
2021/04/28 11:22:05;;;;;;;0.10;0.10;;;;;;;;;;5130808;27;20492;-70
2021/04/28 11:24:46;;;;;;;0.00;0.00;;;;;;;;;;5137049;27;20197;-68
2021/04/28 11:27:32;;;;;;;0.00;0.00;;;;;;;;;;5138070;27;20203;-69
2021/04/28 11:29:58;;;;;;;0.00;0.00;;;;;;;;;;5136225;27;20218;-69
2021/04/28 11:32:24;;;;;;;0.00;0.00;;;;;;;;;;5138602;27;20206;-68
2021/04/28 11:34:53;;;;;;;0.00;0.00;;;;;;;;;;5135532;27;20197;-70
2021/04/28 11:37:19;;;;;;;0.00;0.00;;;;;;;;;;5132584;27;20269;-67
2021/04/28 11:39:46;;;;;;;0.00;0.00;;;;;;;;;;5143551;27;20215;-65
2021/04/28 11:42:12;;;;;;;0.03;0.03;;;;;;;;;;5135551;27;20273;-64
2021/04/28 11:44:39;;;;;;;0.00;0.00;;;;;;;;;;5126695;27;20208;-64
2021/04/28 11:47:07;;;;;;;0.00;0.00;;;;;;;;;;5153048;27;20272;-64
2021/04/28 11:49:33;;;;;;;0.10;0.10;;;;;;;;;;5148548;27;20342;-64
2021/04/28 11:51:59;;;;;;;0.00;0.00;;;;;;;;;;5131543;27;20212;-65
2021/04/28 11:54:25;;;;;;;0.00;0.00;;;;;;;;;;5138081;27;20198;-65
2021/04/28 11:56:50;;;;;;;0.00;0.00;;;;;;;;;;5140502;27;20531;-64
2021/04/28 11:59:20;;;;;;;0.00;0.00;;;;;;;;;;5142042;27;20471;-65
2021/04/28 12:01:46;;;;;;;0.00;0.00;;;;;;;;;;5137635;27;20193;-64
2021/04/28 12:04:14;;;;;;;0.10;0.10;;;;;;;;;;5130397;27;20603;-64
2021/04/28 12:06:41;;;;;;;0.00;0.00;;;;;;;;;;5139753;27;20212;-67
2021/04/28 12:09:18;;;;;;;0.00;0.00;;;;;;;;;;5132629;27;20264;-64
2021/04/28 12:11:46;;;;;;;0.00;0.00;;;;;;;;;;5137752;27;20229;-66
2021/04/28 12:14:12;;;;;;;0.00;0.00;;;;;;;;;;5143887;27;20213;-63
2021/04/28 12:16:51;;;;;;;0.00;0.00;;;;;;;;;;5139116;27;20260;-64
2021/04/28 12:19:18;;;;;;;0.00;0.00;;;;;;;;;;5140146;27;20231;-64
2021/04/28 12:21:50;;;;;;;0.00;0.00;;;;;;;;;;5140558;27;20280;-63
2021/04/28 12:24:22;;;;;;;0.00;0.00;;;;;;;;;;5144285;27;20262;-64
2021/04/28 12:27:00;;;;;;;0.45;0.45;;;;;;;;;;5139024;27;20256;-64
2021/04/28 12:29:26;;;;;;;0.00;0.00;;;;;;;;;;5140896;27;20189;-63
2021/04/28 12:31:52;;;;;;;0.00;0.00;;;;;;;;;;5130883;27;20348;-63
2021/04/28 12:34:19;;;;;;;0.00;0.00;;;;;;;;;;5133064;27;20213;-64
2021/04/28 12:36:46;;;;;;;0.10;0.10;;;;;;;;;;5137239;27;20208;-63
2021/04/28 12:39:23;;;;;;;0.20;0.20;;;;;;;;;;5139482;27;20229;-65
2021/04/28 12:41:49;;;;;;;0.90;0.90;;;;;;;;;;5147917;27;20216;-64
2021/04/28 12:44:14;;;;;;;0.00;0.00;;;;;;;;;;5141710;27;20203;-65
2021/04/28 12:46:44;;;;;;;0.00;0.00;;;;;;;;;;5136487;27;20275;-65
2021/04/28 12:49:10;;;;;;;0.10;0.10;;;;;;;;;;5148484;27;20197;-64
2021/04/28 12:51:43;;;;;;;0.10;0.10;;;;;;;;;;5136995;27;20217;-64
2021/04/28 12:54:09;;;;;;;1.75;1.65;;;;;;;;;;5143646;27;20200;-64
2021/04/28 12:56:41;;;;;;;0.10;0.10;;;;;;;;;;5129732;27;20254;-65
2021/04/28 12:59:16;;;;;;;0.05;0.05;;;;;;;;;;5135774;27;20263;-64
2021/04/28 13:01:42;;;;;;;0.00;0.00;;;;;;;;;;5144273;27;20205;-65
2021/04/28 13:04:17;;;;;;;0.10;0.10;;;;;;;;;;5135672;27;20267;-65
2021/04/28 13:06:44;;;;;;;0.00;0.00;;;;;;;;;;5138999;27;20257;-67
2021/04/28 13:09:13;;;;;;;0.20;0.20;;;;;;;;;;5135924;28;20452;-65
2021/04/28 13:11:41;;;;;;;0.10;0.10;;;;;;;;;;5144628;28;20211;-64
2021/04/28 13:14:07;;;;;;;0.10;0.10;;;;;;;;;;5144685;28;20408;-65
2021/04/28 13:16:37;;;;;;;0.00;0.00;;;;;;;;;;5136787;28;20269;-65
2021/04/28 13:19:07;;;;;;;0.08;0.08;;;;;;;;;;5136998;28;20286;-65
2021/04/28 13:21:34;;;;;;;0.00;0.00;;;;;;;;;;5143531;28;20216;-65
2021/04/28 13:24:10;;;;;;;0.10;0.10;;;;;;;;;;5138294;28;20292;-68
2021/04/28 13:26:37;;;;;;;0.05;0.05;;;;;;;;;;5136410;28;20312;-64
2021/04/28 13:29:04;;;;;;;0.05;0.05;;;;;;;;;;5138190;28;20299;-65
2021/04/28 13:31:31;;;;;;;0.10;0.10;;;;;;;;;;5143015;28;20243;-66
2021/04/28 13:33:57;;;;;;;0.05;0.05;;;;;;;;;;5128362;28;20202;-65
2021/04/28 13:36:28;;;;;;;0.25;0.25;;;;;;;;;;5130717;28;20207;-66
2021/04/28 13:38:55;;;;;;;0.10;0.10;;;;;;;;;;5137658;27;20229;-65
2021/04/28 13:41:22;;;;;;;0.10;0.10;;;;;;;;;;5143121;27;20203;-67
2021/04/28 13:43:48;;;;;;;0.00;0.00;;;;;;;;;;5139654;27;20202;-71
2021/04/28 13:46:14;;;;;;;0.10;0.10;;;;;;;;;;5146550;27;20279;-71
2021/04/28 13:48:40;;;;;;;0.10;0.10;;;;;;;;;;5147972;27;20207;-69
2021/04/28 13:51:06;;;;;;;0.03;0.03;;;;;;;;;;5133386;27;20205;-70
2021/04/28 13:53:32;;;;;;;0.10;0.10;;;;;;;;;;5143735;27;20208;-70
2021/04/28 13:55:58;;;;;;;0.10;0.10;;;;;;;;;;5138624;27;20206;-69
2021/04/28 13:58:25;;;;;;;0.00;0.00;;;;;;;;;;5135997;27;20282;-70
2021/04/28 14:00:51;;;;;;;0.10;0.10;;;;;;;;;;5136822;27;20255;-70
2021/04/28 14:03:17;;;;;;;0.10;0.10;;;;;;;;;;5138298;27;20231;-71
2021/04/28 14:05:43;;;;;;;0.03;0.03;;;;;;;;;;5142824;27;20200;-72
2021/04/28 14:08:08;;;;;;;0.10;0.10;;;;;;;;;;5131801;27;20204;-70
2021/04/28 14:10:35;;;;;;;0.10;0.10;;;;;;;;;;5137087;27;20196;-70
2021/04/28 14:13:00;;;;;;;0.10;0.10;;;;;;;;;;5139898;27;20250;-71
2021/04/28 14:15:27;;;;;;;0.05;0.05;;;;;;;;;;5139557;27;20637;-72
2021/04/28 14:17:53;;;;;;;0.45;0.45;;;;;;;;;;5142056;27;20233;-72
2021/04/28 14:20:20;;;;;;;0.10;0.10;;;;;;;;;;5141245;27;20242;-72
2021/04/28 14:22:46;;;;;;;0.00;0.00;;;;;;;;;;5143200;27;20230;-72
2021/04/28 14:25:12;;;;;;;0.03;0.03;;;;;;;;;;5147046;27;20205;-72
2021/04/28 14:27:38;;;;;;;0.10;0.10;;;;;;;;;;5145840;27;20263;-70
2021/04/28 14:30:05;;;;;;;2.00;1.90;;;;;;;;;;5145913;27;20224;-71
2021/04/28 14:32:33;;;;;;;4.65;2.30;;;;;;;;;;5147385;27;20205;-71
2021/04/28 14:34:59;;;;;;;0.10;0.10;;;;;;;;;;5147808;27;21268;-71
2021/04/28 14:37:25;;;;;;;0.10;0.10;;;;;;;;;;5157147;27;20273;-72
2021/04/28 14:39:51;;;;;;;0.00;0.00;;;;;;;;;;5142979;27;20201;-71
2021/04/28 14:42:17;;;;;;;0.10;0.10;;;;;;;;;;5143157;27;20437;-73